EGXW/WTN METAR and TAF weather

Enter ICAO airport designator
Station Type Date Time Source
EGXW METAR 2018/04/23 10:50 UTC NOAA

EGXW 231050Z 26015KT 9999 SCT036 BKN250 13/03 Q1013 BLU NOSIG


Station Type Date Time Source
EGXW Decoded METAR 2018/04/23 10:50 UTC NOAA

Waddington, United Kingdom (EGXW) 53-10N 000-31W 0M
Apr 23, 2018 - 06:50 AM EDT / 2018.04.23 1050 UTC
Wind: from the W (260 degrees) at 17 MPH (15 KT):0
Visibility: greater than 7 mile(s):0
Sky conditions: mostly cloudy
Temperature: 55 F (13 C)
Dew Point: 37 F (3 C)
Relative Humidity: 50%
Pressure (altimeter): 29.91 in. Hg (1013 hPa)
ob: EGXW 231050Z 26015KT 9999 SCT036 BKN250 13/03 Q1013 BLU NOSIG
cycle: 11

Station Type Date Time Source
EGXW TAF 2018/04/23 12:06 UTC NOAA

TAF EGXW 231032Z 2312/2406 25014KT 9999 BKN035 PROB40 2319/2406 BKN016 PROB30
TEMPO 2321/2406 7000 -RADZ SCT012


Example: see airport list